Bei Facebook empfehlenBei Twitter postenGoogle plusPinterest

Das Wetter im Erzgebirge am 16.10.2015

Wetter und Klima am 16.10.2015 Holzhau im Erzgebirge (630m ü.NN)
Letzte gemessene Temperatur und Uhrzeit der Messung23:45:00 Uhr4.50 °C
Temperatur (Maximum / Höchstwert) und Uhrzeit der Messung00:00:00 Uhr6.80 °C
Temperatur (Minimum / Tiefstwert) und Uhrzeit der Messung08:30:004.20 °C
Errechneter Absolutwert der Temperaturschwankungen zwischen Tmin und Tmax des Tages2.60 K
Errechnete Tagesmitteltemperatur4.98854 °C
Gesamt - Niederschlag des Tages (in flüssiger Form)2.59 Liter / m²
Luftdruck (Maximum / Höchstwert) und Zeitpunkt der Messung22:45:00 Uhr1014.00 hPa
Luftdruck (Minimum / Tiefstwert) und Zeitpunkt der Messung06:15:00 Uhr1009.90 hPa
Errechneter Absolutwert der Luftdruckschwankungen des Tages4.10 hPa
Höchste gemessene Windgeschwindigkeit und Uhrzeit der Messung02:00:00 Uhr2.88 km/h
Errechnete Windhäufigkeit in Relation zu den Messwerten des Tages1.04167 %
Niedrigste Windkühle (Windchill) und Zeitpunkt der Messung08:30:00 Uhr4.20 °C
Taupunkt (Maximum / Höchstwert) und Uhrzeit der Messung00:00:00 Uhr6.20 °C
Taupunkt (Minimum / Tiefstwert) und Uhrzeit der Messung08:30:003.60 °C
Anzahl der automatisch eingelesenen Messwerte 96

Detaillierte Wetter- und Klima- Messwerte für den 16.10.2015 in Holzhau im Erzgebirge (630m ü.NN)
ZeitTemperaturLuftdruckRel. LuftfeuchteWindWindrichtungWindchillTaupunktNiederschlag l/m²
23:45:004.50 °C1013.90 hPa96.00 %3.90 °C2.59
23:30:004.50 °C1013.80 hPa96.00 %3.90 °C2.59
23:15:004.60 °C1013.90 hPa96.00 %4.00 °C2.59
23:00:004.60 °C1013.80 hPa96.00 %4.00 °C2.59
22:45:004.60 °C1014.00 hPa96.00 %4.00 °C2.07
22:30:004.60 °C1013.80 hPa96.00 %4.00 °C2.07
22:15:004.60 °C1013.70 hPa96.00 %4.00 °C2.07
22:00:004.60 °C1013.70 hPa96.00 %4.00 °C2.07
21:45:004.60 °C1013.50 hPa96.00 %4.00 °C2.07
21:30:004.60 °C1013.40 hPa96.00 %4.00 °C2.07
21:15:004.60 °C1013.40 hPa96.00 %4.00 °C2.07
21:00:004.70 °C1013.40 hPa96.00 %4.10 °C2.07
20:45:004.70 °C1013.30 hPa96.00 %4.10 °C2.07
20:30:004.70 °C1013.10 hPa96.00 %4.10 °C2.07
20:15:004.70 °C1013.20 hPa96.00 %4.10 °C2.07
20:00:004.80 °C1013.40 hPa96.00 %4.20 °C2.07
19:45:004.80 °C1013.50 hPa96.00 %4.20 °C2.07
19:30:004.80 °C1013.40 hPa96.00 %4.20 °C2.07
19:15:004.80 °C1013.20 hPa96.00 %4.20 °C2.07
19:00:004.80 °C1013.10 hPa96.00 %4.20 °C2.07
18:45:004.90 °C1013.10 hPa96.00 %4.30 °C2.07
18:30:004.90 °C1013.10 hPa96.00 %4.30 °C2.07
18:15:004.90 °C1013.00 hPa96.00 %4.30 °C2.07
18:00:005.00 °C1012.90 hPa96.00 %4.40 °C1.55
17:45:005.10 °C1012.90 hPa96.00 %4.50 °C1.55
17:30:005.10 °C1012.70 hPa96.00 %4.50 °C1.55
17:15:005.10 °C1012.80 hPa96.00 %4.50 °C1.55
17:00:005.20 °C1012.60 hPa96.00 %4.60 °C1.55
16:45:005.30 °C1012.80 hPa96.00 %4.70 °C1.55
16:30:005.30 °C1013.00 hPa96.00 %4.70 °C1.55
16:15:005.50 °C1013.20 hPa96.00 %4.90 °C1.55
16:00:005.60 °C1012.90 hPa97.00 %5.20 °C1.55
15:45:005.60 °C1012.50 hPa97.00 %5.20 °C1.55
15:30:005.50 °C1012.50 hPa96.00 %4.90 °C1.55
15:15:005.60 °C1012.70 hPa97.00 %5.20 °C1.55
15:00:005.80 °C1012.50 hPa97.00 %5.40 °C1.55
14:45:005.80 °C1012.50 hPa97.00 %5.40 °C1.55
14:30:005.90 °C1012.60 hPa97.00 %5.50 °C1.55
14:15:005.90 °C1012.60 hPa97.00 %5.50 °C1.55
14:00:006.10 °C1012.50 hPa97.00 %5.70 °C1.55
13:45:006.20 °C1012.30 hPa97.00 %5.80 °C1.55
13:30:005.90 °C1012.30 hPa97.00 %5.50 °C1.55
13:15:005.90 °C1012.20 hPa97.00 %5.50 °C1.55
13:00:005.80 °C1012.20 hPa97.00 %5.40 °C1.55
12:45:005.60 °C1012.10 hPa97.00 %5.20 °C1.55
12:30:005.60 °C1012.20 hPa97.00 %5.20 °C1.55
12:15:005.60 °C1012.10 hPa97.00 %5.20 °C1.55
12:00:005.50 °C1012.10 hPa96.00 %4.90 °C1.55
11:45:005.40 °C1012.00 hPa96.00 %4.80 °C1.55
11:30:005.50 °C1012.00 hPa96.00 %4.90 °C1.55
11:15:005.50 °C1011.90 hPa96.00 %4.90 °C1.55
11:00:005.40 °C1011.90 hPa96.00 %4.80 °C1.55
10:45:005.30 °C1011.50 hPa96.00 %4.70 °C1.55
10:30:005.20 °C1011.80 hPa96.00 %4.60 °C1.55
10:15:005.10 °C1011.50 hPa96.00 %4.50 °C1.55
10:00:005.10 °C1011.70 hPa96.00 %4.50 °C1.55
09:45:004.80 °C1011.30 hPa96.00 %4.20 °C1.55
09:30:004.50 °C1011.30 hPa96.00 %3.90 °C1.55
09:15:004.50 °C1011.20 hPa96.00 %3.90 °C1.55
09:00:004.40 °C1011.30 hPa96.00 %3.80 °C1.55
08:45:004.30 °C1011.10 hPa96.00 %3.70 °C1.04
08:30:004.20 °C1010.70 hPa96.00 %3.60 °C1.04
08:15:004.20 °C1010.60 hPa96.00 %3.60 °C1.04
08:00:004.20 °C1010.90 hPa96.00 %3.60 °C1.04
07:45:004.20 °C1010.50 hPa96.00 %3.60 °C1.04
07:30:004.20 °C1010.50 hPa96.00 %3.60 °C1.04
07:15:004.20 °C1010.50 hPa96.00 %3.60 °C1.04
07:00:004.20 °C1010.40 hPa96.00 %3.60 °C1.04
06:45:004.20 °C1010.20 hPa96.00 %3.60 °C1.04
06:30:004.20 °C1010.40 hPa96.00 %3.60 °C1.04
06:15:004.20 °C1009.90 hPa96.00 %3.60 °C1.04
06:00:004.30 °C1009.90 hPa96.00 %3.70 °C1.04
05:45:004.30 °C1010.20 hPa96.00 %3.70 °C0.52
05:30:004.30 °C1010.10 hPa96.00 %3.70 °C0.52
05:15:004.30 °C1010.30 hPa96.00 %3.70 °C0.52
05:00:004.30 °C1010.10 hPa96.00 %3.70 °C0.52
04:45:004.30 °C1010.10 hPa96.00 %3.70 °C0.52
04:30:004.30 °C1010.20 hPa96.00 %3.70 °C0.52
04:15:004.30 °C1010.20 hPa96.00 %3.70 °C0.52
04:00:004.30 °C1010.40 hPa96.00 %3.70 °C0.52
03:45:004.40 °C1010.10 hPa96.00 %3.80 °C0.52
03:30:004.40 °C1010.30 hPa96.00 %3.80 °C0.52
03:15:004.40 °C1010.50 hPa96.00 %3.80 °C0.52
03:00:004.40 °C1010.50 hPa96.00 %3.80 °C0.52
02:45:004.50 °C1010.40 hPa96.00 %3.90 °C0.52
02:30:004.60 °C1010.30 hPa96.00 %4.00 °C 
02:15:004.80 °C1010.40 hPa96.00 %4.20 °C 
02:00:005.10 °C1010.30 hPa96.00 %2.88 km/hWSW5.10 °C4.50 °C 
01:45:005.30 °C1010.30 hPa96.00 %4.70 °C 
01:30:005.80 °C1010.20 hPa96.00 %5.20 °C 
01:15:006.10 °C1009.90 hPa96.00 %5.50 °C 
01:00:006.10 °C1010.10 hPa96.00 %5.50 °C 
00:45:006.20 °C1010.20 hPa96.00 %5.60 °C 
00:30:006.30 °C1010.10 hPa96.00 %5.70 °C 
00:15:006.60 °C1010.10 hPa96.00 %6.00 °C 
00:00:006.80 °C1009.90 hPa96.00 %6.20 °C 

Permanenter Link zu dieser Seite: Wetter im Erzgebirge am 16.10.2015
Performance-Info: Die Erstellung der Seite / Statistik(en) / Tabelle(n) erforderte 5 Datenbankserver-Abfrage(n) und dauerte 98 Millisekunden. (Dieser Messwert ist von der Gesamt-Auslastung des Servers abhängig.)
Erzgebirge - Wetter | Erzgebirge - Wetter (Mobilgeräte) | Komplette Klimadatenbank